Emerald Star — WCW7286 — position and weather

sailwx.info

Track history (hours):
 
Tides and Currents Weather Stations Pressure Air Temp Water Temp Dewpoint Dewpoint Depression Visibility Wind Speed Wind Dir Waves Ship Positions

Emerald Star

Owner: WATERWAYS CRUISES INC, SEATTLE, WA. More information available from US FCC via Universal Licensing System and Coast Guard Vessel Documentation Center.

Last reported at 2018-Apr-06 01:30 UTC. Time now 2018-Jun-20 17:29 UTC.
Position N 47°39' W 122°20'.
Warning: this ship's position is months out of date.

Date/timePositionNaut miles runAvg speedWind from/ knotsBaromVisibWave heightAir tempDewpointWater temp
2018-Apr-06 01:30N 47°39' W 122°20'0 0.0
2018-Apr-05 19:00N 47°39' W 122°20'0 0.0
2018-Apr-05 18:23N 47°39' W 122°20'0 0.0
2018-Apr-05 17:58N 47°39' W 122°20'0 0.0
2018-Apr-05 16:46N 47°39' W 122°20'0 0.0
2018-Apr-05 16:25N 47°39' W 122°20'0 0.0
2018-Apr-05 15:55N 47°39' W 122°20'0 0.0
2018-Apr-05 15:13N 47°39' W 122°20'0 0.0
2018-Apr-05 14:55N 47°39' W 122°20'0 0.0
2018-Apr-05 14:28N 47°39' W 122°20'0 0.0
2018-Apr-05 13:40N 47°39' W 122°20'0 0.0
2018-Apr-05 13:16N 47°39' W 122°20'0 0.0
2018-Apr-05 12:49N 47°39' W 122°20'0 0.0
2018-Apr-05 12:25N 47°39' W 122°20'0 0.0
2018-Apr-05 11:55N 47°39' W 122°20'0 0.0
2018-Apr-05 10:33N 47°39' W 122°20'0 0.0
2018-Apr-05 10:30N 47°39' W 122°20'0 0.0
2018-Apr-05 09:42N 47°39' W 122°20'0 0.0
2018-Apr-05 09:24N 47°39' W 122°20'0 0.0
2018-Apr-05 08:51N 47°39' W 122°20'0 0.0
2018-Apr-05 08:12N 47°39' W 122°20'0 0.0
2018-Apr-05 07:57N 47°39' W 122°20'0 0.0
2018-Apr-05 07:24N 47°39' W 122°20'0 0.0
2018-Apr-05 07:00N 47°39' W 122°20'0 0.0
2018-Apr-05 06:27N 47°39' W 122°20'0 0.0
2018-Apr-04 21:59N 47°39' W 122°20'0 0.2
2018-Apr-04 21:30N 47°39' W 122°20'1 1.4
2018-Apr-04 20:59N 47°39' W 122°21'0 0.1
2018-Apr-04 20:30N 47°39' W 122°21'  
2018-Apr-01 23:30N 47°39' W 122°20'1 1.5
2018-Apr-01 22:58N 47°38' W 122°20'2 5.0
2018-Apr-01 22:30N 47°39' W 122°17'1 1.8
2018-Apr-01 21:59N 47°38' W 122°16'3 1.0
2018-Apr-01 19:28N 47°39' W 122°20'1 2.0
2018-Apr-01 19:00N 47°38' W 122°20'2 4.5
2018-Apr-01 18:29N 47°39' W 122°17'1 2.5
2018-Apr-01 18:00N 47°38' W 122°16'3 5.8
2018-Apr-01 17:30N 47°39' W 122°20'0 0.0
2018-Apr-01 04:01N 47°39' W 122°20'0 0.0
2018-Apr-01 04:01N 47°39' W 122°20'0 0.2
2018-Apr-01 03:30N 47°39' W 122°20'3 6.5
2018-Apr-01 03:01N 47°39' W 122°15'2 4.6
2018-Apr-01 02:30N 47°37' W 122°13'3 6.6
2018-Apr-01 01:58N 47°39' W 122°17'2 0.3
2018-Mar-31 20:00N 47°39' W 122°20'1 1.4
2018-Mar-31 19:30N 47°39' W 122°20'2 4.1
2018-Mar-31 19:00N 47°40' W 122°23'2 4.5
2018-Mar-31 18:30N 47°39' W 122°20'  
2018-Mar-29 02:41N 47°39' W 122°20'1 5.2
2018-Mar-29 02:30N 47°38' W 122°20'1 1.6
2018-Mar-29 02:00N 47°39' W 122°20'3 5.6
2018-Mar-29 01:30N 47°39' W 122°16'2 3.6
2018-Mar-29 01:00N 47°37' W 122°15'2 3.4
2018-Mar-29 00:30N 47°38' W 122°16'  
Track history (hours):
 
Tides and Currents Weather Stations Pressure Air Temp Water Temp Dewpoint Dewpoint Depression Visibility Wind Speed Wind Dir Waves Ship Positions

Emerald Star

Owner: WATERWAYS CRUISES INC, SEATTLE, WA. More information available from US FCC via Universal Licensing System and Coast Guard Vessel Documentation Center.

Last reported at 2018-Apr-06 01:30 UTC. Time now 2018-Jun-20 17:29 UTC.
Position N 47°39' W 122°20'.
Warning: this ship's position is months out of date.

Date/timePositionNaut miles runAvg speedWind from/ knotsBaromVisibWave heightAir tempDewpointWater temp
2018-Apr-06 01:30N 47°39' W 122°20'0 0.0
2018-Apr-05 19:00N 47°39' W 122°20'0 0.0
2018-Apr-05 18:23N 47°39' W 122°20'0 0.0
2018-Apr-05 17:58N 47°39' W 122°20'0 0.0
2018-Apr-05 16:46N 47°39' W 122°20'0 0.0
2018-Apr-05 16:25N 47°39' W 122°20'0 0.0
2018-Apr-05 15:55N 47°39' W 122°20'0 0.0
2018-Apr-05 15:13N 47°39' W 122°20'0 0.0
2018-Apr-05 14:55N 47°39' W 122°20'0 0.0
2018-Apr-05 14:28N 47°39' W 122°20'0 0.0
2018-Apr-05 13:40N 47°39' W 122°20'0 0.0
2018-Apr-05 13:16N 47°39' W 122°20'0 0.0
2018-Apr-05 12:49N 47°39' W 122°20'0 0.0
2018-Apr-05 12:25N 47°39' W 122°20'0 0.0
2018-Apr-05 11:55N 47°39' W 122°20'0 0.0
2018-Apr-05 10:33N 47°39' W 122°20'0 0.0
2018-Apr-05 10:30N 47°39' W 122°20'0 0.0
2018-Apr-05 09:42N 47°39' W 122°20'0 0.0
2018-Apr-05 09:24N 47°39' W 122°20'0 0.0
2018-Apr-05 08:51N 47°39' W 122°20'0 0.0
2018-Apr-05 08:12N 47°39' W 122°20'0 0.0
2018-Apr-05 07:57N 47°39' W 122°20'0 0.0
2018-Apr-05 07:24N 47°39' W 122°20'0 0.0
2018-Apr-05 07:00N 47°39' W 122°20'0 0.0
2018-Apr-05 06:27N 47°39' W 122°20'0 0.0
2018-Apr-04 21:59N 47°39' W 122°20'0 0.2
2018-Apr-04 21:30N 47°39' W 122°20'1 1.4
2018-Apr-04 20:59N 47°39' W 122°21'0 0.1
2018-Apr-04 20:30N 47°39' W 122°21'  
2018-Apr-01 23:30N 47°39' W 122°20'1 1.5
2018-Apr-01 22:58N 47°38' W 122°20'2 5.0
2018-Apr-01 22:30N 47°39' W 122°17'1 1.8
2018-Apr-01 21:59N 47°38' W 122°16'3 1.0
2018-Apr-01 19:28N 47°39' W 122°20'1 2.0
2018-Apr-01 19:00N 47°38' W 122°20'2 4.5
2018-Apr-01 18:29N 47°39' W 122°17'1 2.5
2018-Apr-01 18:00N 47°38' W 122°16'3 5.8
2018-Apr-01 17:30N 47°39' W 122°20'0 0.0
2018-Apr-01 04:01N 47°39' W 122°20'0 0.0
2018-Apr-01 04:01N 47°39' W 122°20'0 0.2
2018-Apr-01 03:30N 47°39' W 122°20'3 6.5
2018-Apr-01 03:01N 47°39' W 122°15'2 4.6
2018-Apr-01 02:30N 47°37' W 122°13'3 6.6
2018-Apr-01 01:58N 47°39' W 122°17'2 0.3
2018-Mar-31 20:00N 47°39' W 122°20'1 1.4
2018-Mar-31 19:30N 47°39' W 122°20'2 4.1
2018-Mar-31 19:00N 47°40' W 122°23'2 4.5
2018-Mar-31 18:30N 47°39' W 122°20'  
2018-Mar-29 02:41N 47°39' W 122°20'1 5.2
2018-Mar-29 02:30N 47°38' W 122°20'1 1.6
2018-Mar-29 02:00N 47°39' W 122°20'3 5.6
2018-Mar-29 01:30N 47°39' W 122°16'2 3.6
2018-Mar-29 01:00N 47°37' W 122°15'2 3.4
2018-Mar-29 00:30N 47°38' W 122°16'  

Dump ship's entire track history